Terminal Aerodrome Forecast
Issued by NWS Amarillo, TX

Home | Current Version | Previous Version | Text Only | Print | Product List | Glossary On
Versions: 1 2 3 4 5 6 7 8 9 10 11 12 13 14 15 16 17 18 19 20 21 22 23 24 25 26 27 28 29 30 31 32
000
FTUS44 KAMA 160520
TAFDHT
TAF
KDHT 160520Z 1606/1706 01010KT P6SM -SHRA OVC100
     FM160900 35006KT P6SM BKN200
     FM161900 05008KT P6SM OVC150 PROB30 1619/1624 4SM TSRA OVC025CB
     FM170200 05005KT P6SM BKN250=

USA.gov is the U.S. government's official web portal to all federal, state and local government web resources and services.